Terminal Aerodrome Forecast
Issued by NWS

Home | Current Version | Previous Version | Text Only | Print | Product List | Glossary On
Versions: 1 2 3 4 5 6 7 8 9 10 11 12 13 14 15 16 17 18
717
FTUS45 KTFX 182140 AAA
TAFHVR
TAF AMD
KHVR 182140Z 1822/1918 02008KT 4SM -SN BR SCT020 OVC035
      TEMPO 1822/1824 2SM -SHSN BR BKN020
     FM190200 05006KT P6SM VCSH BKN025 OVC080 PROB30 1910/1915 2SM
      -SN OVC015
     FM191500 09007KT P6SM BKN025=

USA.gov is the U.S. government's official web portal to all federal, state and local government web resources and services.